Pagrindinis puslapis
METAR-TAF:

METAR-TAF

Oro uostai :

Vijayawada, Indija

platuma: 16-31-44N, ilguma: 80-47-45E, Aukštis: 25 m

Dabartinis oras

Ataskaita buvo paskelbta 15 minutes, ne 13:30 UTC
Vėjas 1 kt nuo kintamojo kryptimis
Temperatūra 32°C
Drėgmė 67%
Slėgis 1002 hPa
Matomumas: 6000 m

METAR: VOBZ 121330Z VRB01KT 6000 NSC 32/25 Q1002 NOSIG

Laikas: 19:15 (13:45 UTC)

Prognozė

Ataskaita buvo paskelbta 2 valandos ir 45 minutes, ne 11:00 UTC
Prognozė galioja nuo 12 metu 12 UTC su 12 metu 21 UTC
Vėjas 5 kt iš Pietų/Pietvakarių
Matomumas: 6000 m
Išsisklaidę debesys ne aukštis 2000 ft
Išsisklaidę debesys ne aukštis 2500 ft
Laikinai
nuo 12 metu 13 UTC su 12 metu 16 UTC
Vėjas 4 kt iš Pietryčių
Matomumas: 5000 m
migla
Tapsmas
nuo 12 metu 16 UTC su 12 metu 18 UTC
Vėjas 4 kt iš Pietryčių
Matomumas: 3000 m
Išsisklaidę debesys ne aukštis 2000 ft
Išsisklaidę debesys ne aukštis 10000 ft
rūkana

TAF: VOBZ 121100Z 1212/1221 20005KT 6000 SCT020 SCT025 TEMPO 1213/1216 13004KT 5000 HZ BECMG 1216/1218 14004KT 3000 BR SCT020 SCT100

Orai ataskaitas ir orų prognozės (METAR, TAF).

turimą stotys yra geltonos ir raudonos taškus žemėlapyje.

Perkelti pele per norėdami pamatyti stoties vardą.

Tada spustelėkite, norėdami matyti oro stebėjimo ir prognozės.

Norėdami pakeisti žemėlapį: spustelėkite ant žalios mygtukų su juodo kryžiaus žemyn,; žalią mygtuką su brūkšneliu, jei norite nutolinti; arba žalių rodyklių gretimoms žemėlapius.


METAR-TAF: